CheckWX is a tool to help pilots better visualize weather data.  It is not intended as a substitute for an official pre-flight weather briefing.

14:23:16 UTC

KOQT METAR
Oak Ridge Airport
Tennessee, USA
Current

30 mins ago

KOQT 261353Z AUTO 26005KT 9SM -RA FEW025 BKN035 BKN044 17/12 A2975 RMK AO2 SLP067 P0000 T01670117
Observed
Apr-26 @ 13:53 UTC
Wind
  • 260° at 5 KTS
Visibility
9 SM
Flight Rules
VFR
Conditions
Light Rain
Cloud Levels
  • Few at 2,500' AGL
  • Broken at 3,500' AGL
  • Broken at 4,400' AGL
Temperature
17°C / 63°F
Dewpoint
12°C / 54°F
Humidity
73%
Altimeter
29.75" Hg
Pressure
1007.42 hPa
Current Rain
0.01"
Previous

2 hours ago

KOQT 261253Z AUTO VRB05KT 10SM -RA FEW034 FEW042 BKN060 16/12 A2974 RMK AO2 SLP060 P0000 T01610122
Observed
Apr-26 @ 12:53 UTC
Wind
  • Variable at 5 KTS
Visibility
10 SM
Flight Rules
VFR
Conditions
Light Rain
Cloud Levels
  • Few at 3,400' AGL
  • Few at 4,200' AGL
  • Broken at 6,000' AGL
Temperature
16°C / 61°F
Dewpoint
12°C / 54°F
Humidity
77%
Altimeter
29.74" Hg
Pressure
1007.12 hPa
Current Rain
0.01"
Previous

3 hours ago

KOQT 261153Z AUTO 25007G15KT 10SM -RA FEW039 BKN048 BKN060 16/13 A2971 RMK AO2 SLP051 P0001 60017 70017 T01560128 10183 20156 53012
Observed
Apr-26 @ 11:53 UTC
Wind
  • 250° at 7 KTS
  • Gusting to 15 KTS
Visibility
10 SM
Flight Rules
VFR
Conditions
Light Rain
Cloud Levels
  • Few at 3,900' AGL
  • Broken at 4,800' AGL
  • Broken at 6,000' AGL
Temperature
16°C / 61°F
Dewpoint
13°C / 55°F
Humidity
83%
Altimeter
29.71" Hg
Pressure
1006.12 hPa
Current Rain
0.01"
24 Hour Rain
0.17"